sensor_id;sensor_type;location;lat;lon;timestamp;temperature;humidity
10980;DHT22;5543;51.734;8.744;2023-07-13T00:01:14;16.40;99.90
10980;DHT22;5543;51.734;8.744;2023-07-13T00:03:42;16.40;99.90
10980;DHT22;5543;51.734;8.744;2023-07-13T00:06:10;16.30;99.90
10980;DHT22;5543;51.734;8.744;2023-07-13T00:08:39;16.20;99.90
10980;DHT22;5543;51.734;8.744;2023-07-13T00:11:08;16.10;99.90
10980;DHT22;5543;51.734;8.744;2023-07-13T00:13:37;16.10;99.90
10980;DHT22;5543;51.734;8.744;2023-07-13T00:16:08;16.10;99.90
10980;DHT22;5543;51.734;8.744;2023-07-13T00:18:37;16.10;99.90
10980;DHT22;5543;51.734;8.744;2023-07-13T00:21:05;16.00;99.90
10980;DHT22;5543;51.734;8.744;2023-07-13T00:23:35;16.00;99.90
10980;DHT22;5543;51.734;8.744;2023-07-13T00:26:05;16.00;99.90
10980;DHT22;5543;51.734;8.744;2023-07-13T00:28:35;16.00;99.90
10980;DHT22;5543;51.734;8.744;2023-07-13T00:31:09;15.90;99.90
10980;DHT22;5543;51.734;8.744;2023-07-13T00:33:37;15.90;99.90
10980;DHT22;5543;51.734;8.744;2023-07-13T00:36:09;15.90;99.90
10980;DHT22;5543;51.734;8.744;2023-07-13T00:38:38;15.90;99.90
10980;DHT22;5543;51.734;8.744;2023-07-13T00:41:06;15.90;99.90
10980;DHT22;5543;51.734;8.744;2023-07-13T00:43:36;15.90;99.90
10980;DHT22;5543;51.734;8.744;2023-07-13T00:46:17;16.00;99.90
10980;DHT22;5543;51.734;8.744;2023-07-13T00:48:49;16.00;99.90
10980;DHT22;5543;51.734;8.744;2023-07-13T00:51:21;16.00;99.90
10980;DHT22;5543;51.734;8.744;2023-07-13T00:53:53;16.00;99.90
10980;DHT22;5543;51.734;8.744;2023-07-13T00:56:23;16.10;99.90
10980;DHT22;5543;51.734;8.744;2023-07-13T00:58:53;16.10;99.90
10980;DHT22;5543;51.734;8.744;2023-07-13T01:01:22;16.20;99.90
10980;DHT22;5543;51.734;8.744;2023-07-13T01:03:50;16.20;99.90
10980;DHT22;5543;51.734;8.744;2023-07-13T01:06:18;16.20;99.90
10980;DHT22;5543;51.734;8.744;2023-07-13T01:08:46;16.20;99.90
10980;DHT22;5543;51.734;8.744;2023-07-13T01:11:19;16.20;99.90
10980;DHT22;5543;51.734;8.744;2023-07-13T01:13:49;16.20;99.90
10980;DHT22;5543;51.734;8.744;2023-07-13T01:16:24;16.20;99.90
10980;DHT22;5543;51.734;8.744;2023-07-13T01:18:52;16.20;99.90
10980;DHT22;5543;51.734;8.744;2023-07-13T01:21:22;16.10;99.90
10980;DHT22;5543;51.734;8.744;2023-07-13T01:23:50;16.40;99.90
10980;DHT22;5543;51.734;8.744;2023-07-13T01:26:18;16.10;99.90
10980;DHT22;5543;51.734;8.744;2023-07-13T01:28:47;16.10;99.90
10980;DHT22;5543;51.734;8.744;2023-07-13T01:31:15;16.20;99.90
10980;DHT22;5543;51.734;8.744;2023-07-13T01:33:43;16.20;99.90
10980;DHT22;5543;51.734;8.744;2023-07-13T01:36:12;16.30;99.90
10980;DHT22;5543;51.734;8.744;2023-07-13T01:38:41;16.30;99.90
10980;DHT22;5543;51.734;8.744;2023-07-13T01:41:10;16.40;99.90
10980;DHT22;5543;51.734;8.744;2023-07-13T01:43:39;16.40;99.90
10980;DHT22;5543;51.734;8.744;2023-07-13T01:46:07;16.50;99.90
10980;DHT22;5543;51.734;8.744;2023-07-13T01:48:49;16.50;99.90
10980;DHT22;5543;51.734;8.744;2023-07-13T01:51:19;16.50;99.90
10980;DHT22;5543;51.734;8.744;2023-07-13T01:53:48;16.60;99.90
10980;DHT22;5543;51.734;8.744;2023-07-13T01:56:17;16.60;99.90
10980;DHT22;5543;51.734;8.744;2023-07-13T01:58:45;16.60;99.90
10980;DHT22;5543;51.734;8.744;2023-07-13T02:01:13;16.60;99.90
10980;DHT22;5543;51.734;8.744;2023-07-13T02:03:41;16.60;99.90
10980;DHT22;5543;51.734;8.744;2023-07-13T02:06:09;16.50;99.90
10980;DHT22;5543;51.734;8.744;2023-07-13T02:08:38;16.50;99.90
10980;DHT22;5543;51.734;8.744;2023-07-13T02:11:10;16.50;99.90
10980;DHT22;5543;51.734;8.744;2023-07-13T02:13:38;16.40;99.90
10980;DHT22;5543;51.734;8.744;2023-07-13T02:16:07;16.40;99.90
10980;DHT22;5543;51.734;8.744;2023-07-13T02:18:35;16.30;99.90
10980;DHT22;5543;51.734;8.744;2023-07-13T02:21:04;16.30;99.90
10980;DHT22;5543;51.734;8.744;2023-07-13T02:23:32;16.10;99.90
10980;DHT22;5543;51.734;8.744;2023-07-13T02:26:01;16.00;99.90
10980;DHT22;5543;51.734;8.744;2023-07-13T02:28:31;16.00;99.90
10980;DHT22;5543;51.734;8.744;2023-07-13T02:31:05;16.00;99.90
10980;DHT22;5543;51.734;8.744;2023-07-13T02:33:33;16.00;99.90
10980;DHT22;5543;51.734;8.744;2023-07-13T02:36:01;15.90;99.90
10980;DHT22;5543;51.734;8.744;2023-07-13T02:38:30;15.90;99.90
10980;DHT22;5543;51.734;8.744;2023-07-13T02:41:00;15.90;99.90
10980;DHT22;5543;51.734;8.744;2023-07-13T02:43:34;15.80;99.90
10980;DHT22;5543;51.734;8.744;2023-07-13T02:46:02;15.80;99.90
10980;DHT22;5543;51.734;8.744;2023-07-13T02:48:35;15.70;99.90
10980;DHT22;5543;51.734;8.744;2023-07-13T02:51:05;15.60;99.90
10980;DHT22;5543;51.734;8.744;2023-07-13T02:53:33;15.60;99.90
10980;DHT22;5543;51.734;8.744;2023-07-13T02:56:03;15.50;99.90
10980;DHT22;5543;51.734;8.744;2023-07-13T02:58:33;15.50;99.90
10980;DHT22;5543;51.734;8.744;2023-07-13T03:01:07;15.50;99.90
10980;DHT22;5543;51.734;8.744;2023-07-13T03:03:35;15.40;99.90
10980;DHT22;5543;51.734;8.744;2023-07-13T03:06:05;15.40;99.90
10980;DHT22;5543;51.734;8.744;2023-07-13T03:08:35;15.40;99.90
10980;DHT22;5543;51.734;8.744;2023-07-13T03:11:06;15.40;99.90
10980;DHT22;5543;51.734;8.744;2023-07-13T03:13:36;15.40;99.90
10980;DHT22;5543;51.734;8.744;2023-07-13T03:16:05;15.40;99.90
10980;DHT22;5543;51.734;8.744;2023-07-13T03:18:33;15.60;99.90
10980;DHT22;5543;51.734;8.744;2023-07-13T03:21:02;15.30;99.90
10980;DHT22;5543;51.734;8.744;2023-07-13T03:23:31;15.30;99.90
10980;DHT22;5543;51.734;8.744;2023-07-13T03:26:04;15.30;99.90
10980;DHT22;5543;51.734;8.744;2023-07-13T03:28:35;15.30;99.90
10980;DHT22;5543;51.734;8.744;2023-07-13T03:31:06;15.40;99.90
10980;DHT22;5543;51.734;8.744;2023-07-13T03:33:36;15.40;99.90
10980;DHT22;5543;51.734;8.744;2023-07-13T03:36:05;15.50;99.90
10980;DHT22;5543;51.734;8.744;2023-07-13T03:38:33;15.50;99.90
10980;DHT22;5543;51.734;8.744;2023-07-13T03:41:01;15.70;99.90
10980;DHT22;5543;51.734;8.744;2023-07-13T03:43:29;15.40;99.90
10980;DHT22;5543;51.734;8.744;2023-07-13T03:45:59;15.40;99.90
10980;DHT22;5543;51.734;8.744;2023-07-13T03:48:27;15.30;99.90
10980;DHT22;5543;51.734;8.744;2023-07-13T03:50:55;15.30;99.90
10980;DHT22;5543;51.734;8.744;2023-07-13T03:53:23;15.30;99.90
10980;DHT22;5543;51.734;8.744;2023-07-13T03:55:51;15.30;99.90
10980;DHT22;5543;51.734;8.744;2023-07-13T03:58:28;15.40;99.90
10980;DHT22;5543;51.734;8.744;2023-07-13T04:00:59;15.30;99.90
10980;DHT22;5543;51.734;8.744;2023-07-13T04:03:28;15.20;99.90
10980;DHT22;5543;51.734;8.744;2023-07-13T04:06:00;15.20;99.90
10980;DHT22;5543;51.734;8.744;2023-07-13T04:08:29;15.20;99.90
10980;DHT22;5543;51.734;8.744;2023-07-13T04:10:58;15.20;99.90
10980;DHT22;5543;51.734;8.744;2023-07-13T04:13:26;15.10;99.90
10980;DHT22;5543;51.734;8.744;2023-07-13T04:15:54;15.00;99.90
10980;DHT22;5543;51.734;8.744;2023-07-13T04:18:24;15.10;99.90
10980;DHT22;5543;51.734;8.744;2023-07-13T04:20:52;15.00;99.90
10980;DHT22;5543;51.734;8.744;2023-07-13T04:23:20;15.00;99.90
10980;DHT22;5543;51.734;8.744;2023-07-13T04:25:51;15.00;99.90
10980;DHT22;5543;51.734;8.744;2023-07-13T04:28:21;15.00;99.90
10980;DHT22;5543;51.734;8.744;2023-07-13T04:30:50;15.00;99.90
10980;DHT22;5543;51.734;8.744;2023-07-13T04:33:18;15.00;99.90
10980;DHT22;5543;51.734;8.744;2023-07-13T04:35:51;15.00;99.90
10980;DHT22;5543;51.734;8.744;2023-07-13T04:38:24;15.00;99.90
10980;DHT22;5543;51.734;8.744;2023-07-13T04:40:55;15.00;99.90
10980;DHT22;5543;51.734;8.744;2023-07-13T04:43:24;15.10;99.90
10980;DHT22;5543;51.734;8.744;2023-07-13T04:45:53;15.20;99.90
10980;DHT22;5543;51.734;8.744;2023-07-13T04:48:21;15.20;99.90
10980;DHT22;5543;51.734;8.744;2023-07-13T04:50:56;15.30;99.90
10980;DHT22;5543;51.734;8.744;2023-07-13T04:53:25;15.40;99.90
10980;DHT22;5543;51.734;8.744;2023-07-13T04:55:54;15.40;99.90
10980;DHT22;5543;51.734;8.744;2023-07-13T04:58:23;15.50;99.90
10980;DHT22;5543;51.734;8.744;2023-07-13T05:00:51;15.60;99.90
10980;DHT22;5543;51.734;8.744;2023-07-13T05:03:20;15.60;99.90
10980;DHT22;5543;51.734;8.744;2023-07-13T05:05:57;15.60;99.90
10980;DHT22;5543;51.734;8.744;2023-07-13T05:08:25;15.60;99.90
10980;DHT22;5543;51.734;8.744;2023-07-13T05:10:53;15.80;99.90
10980;DHT22;5543;51.734;8.744;2023-07-13T05:13:22;15.70;99.90
10980;DHT22;5543;51.734;8.744;2023-07-13T05:15:58;15.80;99.90
10980;DHT22;5543;51.734;8.744;2023-07-13T05:18:27;15.80;99.90
10980;DHT22;5543;51.734;8.744;2023-07-13T05:21:01;15.80;99.90
10980;DHT22;5543;51.734;8.744;2023-07-13T05:23:30;16.00;99.90
10980;DHT22;5543;51.734;8.744;2023-07-13T05:25:59;16.10;99.90
10980;DHT22;5543;51.734;8.744;2023-07-13T05:28:29;16.10;99.90
10980;DHT22;5543;51.734;8.744;2023-07-13T05:30:58;16.20;99.90
10980;DHT22;5543;51.734;8.744;2023-07-13T05:33:27;16.30;99.90
10980;DHT22;5543;51.734;8.744;2023-07-13T05:35:55;16.20;99.90
10980;DHT22;5543;51.734;8.744;2023-07-13T05:38:26;16.40;99.90
10980;DHT22;5543;51.734;8.744;2023-07-13T05:40:56;16.40;99.90
10980;DHT22;5543;51.734;8.744;2023-07-13T05:43:24;16.50;99.90
10980;DHT22;5543;51.734;8.744;2023-07-13T05:45:54;16.60;99.90
10980;DHT22;5543;51.734;8.744;2023-07-13T05:48:22;16.60;99.90
10980;DHT22;5543;51.734;8.744;2023-07-13T05:50:51;16.70;99.90
10980;DHT22;5543;51.734;8.744;2023-07-13T05:53:19;16.70;99.90
10980;DHT22;5543;51.734;8.744;2023-07-13T05:55:48;16.70;99.90
10980;DHT22;5543;51.734;8.744;2023-07-13T05:58:20;16.70;99.90
10980;DHT22;5543;51.734;8.744;2023-07-13T06:00:48;16.70;99.90
10980;DHT22;5543;51.734;8.744;2023-07-13T06:03:16;16.70;99.90
10980;DHT22;5543;51.734;8.744;2023-07-13T06:05:45;16.80;99.90
10980;DHT22;5543;51.734;8.744;2023-07-13T06:08:13;16.70;99.90
10980;DHT22;5543;51.734;8.744;2023-07-13T06:10:41;16.70;99.90
10980;DHT22;5543;51.734;8.744;2023-07-13T06:13:10;16.70;99.90
10980;DHT22;5543;51.734;8.744;2023-07-13T06:15:38;16.70;99.90
10980;DHT22;5543;51.734;8.744;2023-07-13T06:18:06;16.70;99.90
10980;DHT22;5543;51.734;8.744;2023-07-13T06:20:35;16.70;99.90
10980;DHT22;5543;51.734;8.744;2023-07-13T06:23:03;16.80;99.90
10980;DHT22;5543;51.734;8.744;2023-07-13T06:25:31;16.80;99.90
10980;DHT22;5543;51.734;8.744;2023-07-13T06:27:59;16.80;99.90
10980;DHT22;5543;51.734;8.744;2023-07-13T06:30:28;16.90;99.90
10980;DHT22;5543;51.734;8.744;2023-07-13T06:32:56;16.90;99.90
10980;DHT22;5543;51.734;8.744;2023-07-13T06:35:24;16.90;99.90
10980;DHT22;5543;51.734;8.744;2023-07-13T06:37:53;16.90;99.90
10980;DHT22;5543;51.734;8.744;2023-07-13T06:40:21;17.00;99.90
10980;DHT22;5543;51.734;8.744;2023-07-13T06:42:49;17.10;99.90
10980;DHT22;5543;51.734;8.744;2023-07-13T06:45:17;17.20;99.90
10980;DHT22;5543;51.734;8.744;2023-07-13T06:47:46;17.30;99.90
10980;DHT22;5543;51.734;8.744;2023-07-13T06:50:15;17.30;99.90
10980;DHT22;5543;51.734;8.744;2023-07-13T06:52:43;17.50;99.90
10980;DHT22;5543;51.734;8.744;2023-07-13T06:55:11;17.50;99.90
10980;DHT22;5543;51.734;8.744;2023-07-13T06:57:39;17.70;99.90
10980;DHT22;5543;51.734;8.744;2023-07-13T07:00:08;17.80;99.90
10980;DHT22;5543;51.734;8.744;2023-07-13T07:02:36;17.90;99.90
10980;DHT22;5543;51.734;8.744;2023-07-13T07:05:06;18.00;99.90
10980;DHT22;5543;51.734;8.744;2023-07-13T07:07:35;18.10;99.90
10980;DHT22;5543;51.734;8.744;2023-07-13T07:10:04;18.20;99.90
10980;DHT22;5543;51.734;8.744;2023-07-13T07:12:32;18.20;99.90
10980;DHT22;5543;51.734;8.744;2023-07-13T07:15:00;18.30;99.90
10980;DHT22;5543;51.734;8.744;2023-07-13T07:17:28;18.40;99.90
10980;DHT22;5543;51.734;8.744;2023-07-13T07:19:56;18.50;99.90
10980;DHT22;5543;51.734;8.744;2023-07-13T07:22:26;18.60;99.90
10980;DHT22;5543;51.734;8.744;2023-07-13T07:24:54;18.60;99.90
10980;DHT22;5543;51.734;8.744;2023-07-13T07:27:23;18.60;99.90
10980;DHT22;5543;51.734;8.744;2023-07-13T07:29:54;18.70;99.90
10980;DHT22;5543;51.734;8.744;2023-07-13T07:32:29;18.70;99.90
10980;DHT22;5543;51.734;8.744;2023-07-13T07:35:18;18.70;99.90
10980;DHT22;5543;51.734;8.744;2023-07-13T07:37:48;18.80;99.90
10980;DHT22;5543;51.734;8.744;2023-07-13T07:40:17;18.80;99.90
10980;DHT22;5543;51.734;8.744;2023-07-13T07:42:48;18.90;99.90
10980;DHT22;5543;51.734;8.744;2023-07-13T07:45:16;18.90;99.90
10980;DHT22;5543;51.734;8.744;2023-07-13T07:47:45;19.00;99.90
10980;DHT22;5543;51.734;8.744;2023-07-13T07:50:13;19.10;99.90
10980;DHT22;5543;51.734;8.744;2023-07-13T07:52:41;19.20;99.90
10980;DHT22;5543;51.734;8.744;2023-07-13T07:55:12;19.30;99.90
10980;DHT22;5543;51.734;8.744;2023-07-13T07:57:43;19.40;99.90
10980;DHT22;5543;51.734;8.744;2023-07-13T08:00:15;19.50;99.90
10980;DHT22;5543;51.734;8.744;2023-07-13T08:03:03;19.70;99.90
10980;DHT22;5543;51.734;8.744;2023-07-13T08:05:35;19.70;99.90
10980;DHT22;5543;51.734;8.744;2023-07-13T08:08:09;19.80;99.90
10980;DHT22;5543;51.734;8.744;2023-07-13T08:10:38;19.90;99.90
10980;DHT22;5543;51.734;8.744;2023-07-13T08:13:06;20.10;99.90
10980;DHT22;5543;51.734;8.744;2023-07-13T08:15:37;20.20;99.90
10980;DHT22;5543;51.734;8.744;2023-07-13T08:18:07;20.20;99.90
10980;DHT22;5543;51.734;8.744;2023-07-13T08:20:37;20.00;99.90
10980;DHT22;5543;51.734;8.744;2023-07-13T08:23:06;19.90;99.90
10980;DHT22;5543;51.734;8.744;2023-07-13T08:25:35;19.90;99.90
10980;DHT22;5543;51.734;8.744;2023-07-13T08:28:04;19.90;99.90
10980;DHT22;5543;51.734;8.744;2023-07-13T08:30:32;20.10;99.90
10980;DHT22;5543;51.734;8.744;2023-07-13T08:33:01;20.30;99.90
10980;DHT22;5543;51.734;8.744;2023-07-13T08:35:29;20.60;99.90
10980;DHT22;5543;51.734;8.744;2023-07-13T08:37:57;21.10;99.90
10980;DHT22;5543;51.734;8.744;2023-07-13T08:40:27;21.70;99.90
10980;DHT22;5543;51.734;8.744;2023-07-13T08:42:57;22.50;99.00
10980;DHT22;5543;51.734;8.744;2023-07-13T08:45:43;23.40;97.70
10980;DHT22;5543;51.734;8.744;2023-07-13T08:48:16;24.40;97.60
10980;DHT22;5543;51.734;8.744;2023-07-13T08:50:49;25.30;96.30
10980;DHT22;5543;51.734;8.744;2023-07-13T08:53:33;26.00;95.10
10980;DHT22;5543;51.734;8.744;2023-07-13T08:56:02;26.40;94.10
10980;DHT22;5543;51.734;8.744;2023-07-13T08:58:33;27.20;93.30
10980;DHT22;5543;51.734;8.744;2023-07-13T09:01:12;27.10;92.10
10980;DHT22;5543;51.734;8.744;2023-07-13T09:03:52;27.20;90.50
10980;DHT22;5543;51.734;8.744;2023-07-13T09:06:33;26.50;90.70
10980;DHT22;5543;51.734;8.744;2023-07-13T09:09:07;25.90;91.80
10980;DHT22;5543;51.734;8.744;2023-07-13T09:11:45;25.30;92.00
10980;DHT22;5543;51.734;8.744;2023-07-13T09:14:34;24.70;92.20
10980;DHT22;5543;51.734;8.744;2023-07-13T09:17:09;24.20;93.50
10980;DHT22;5543;51.734;8.744;2023-07-13T09:19:40;24.10;93.50
10980;DHT22;5543;51.734;8.744;2023-07-13T09:22:14;23.90;93.40
10980;DHT22;5543;51.734;8.744;2023-07-13T09:24:53;24.40;93.90
10980;DHT22;5543;51.734;8.744;2023-07-13T09:27:26;25.60;94.10
10980;DHT22;5543;51.734;8.744;2023-07-13T09:30:02;26.70;91.90
10980;DHT22;5543;51.734;8.744;2023-07-13T09:32:34;27.00;92.00
10980;DHT22;5543;51.734;8.744;2023-07-13T09:35:10;27.40;92.60
10980;DHT22;5543;51.734;8.744;2023-07-13T09:37:39;27.90;90.80
10980;DHT22;5543;51.734;8.744;2023-07-13T09:40:13;28.70;87.00
10980;DHT22;5543;51.734;8.744;2023-07-13T09:42:43;29.30;88.90
10980;DHT22;5543;51.734;8.744;2023-07-13T09:45:17;29.80;86.70
10980;DHT22;5543;51.734;8.744;2023-07-13T09:48:04;29.70;80.60
10980;DHT22;5543;51.734;8.744;2023-07-13T09:50:32;28.70;81.60
10980;DHT22;5543;51.734;8.744;2023-07-13T09:53:01;28.20;85.50
10980;DHT22;5543;51.734;8.744;2023-07-13T09:55:31;28.40;87.10
10980;DHT22;5543;51.734;8.744;2023-07-13T09:58:04;27.90;87.10
10980;DHT22;5543;51.734;8.744;2023-07-13T10:00:37;28.20;86.60
10980;DHT22;5543;51.734;8.744;2023-07-13T10:03:17;29.00;83.40
10980;DHT22;5543;51.734;8.744;2023-07-13T10:05:46;29.40;81.70
10980;DHT22;5543;51.734;8.744;2023-07-13T10:08:25;29.50;81.90
10980;DHT22;5543;51.734;8.744;2023-07-13T10:10:59;30.00;81.40
10980;DHT22;5543;51.734;8.744;2023-07-13T10:13:30;30.40;81.50
10980;DHT22;5543;51.734;8.744;2023-07-13T10:15:59;30.80;79.60
10980;DHT22;5543;51.734;8.744;2023-07-13T10:18:34;30.80;77.50
10980;DHT22;5543;51.734;8.744;2023-07-13T10:21:11;30.90;74.20
10980;DHT22;5543;51.734;8.744;2023-07-13T10:24:04;30.60;76.70
10980;DHT22;5543;51.734;8.744;2023-07-13T10:26:34;30.20;78.00
10980;DHT22;5543;51.734;8.744;2023-07-13T10:29:05;29.70;76.20
10980;DHT22;5543;51.734;8.744;2023-07-13T10:31:40;29.00;76.20
10980;DHT22;5543;51.734;8.744;2023-07-13T10:34:12;28.20;78.00
10980;DHT22;5543;51.734;8.744;2023-07-13T10:36:43;27.40;79.90
10980;DHT22;5543;51.734;8.744;2023-07-13T10:39:17;27.40;83.90
10980;DHT22;5543;51.734;8.744;2023-07-13T10:41:49;27.50;81.30
10980;DHT22;5543;51.734;8.744;2023-07-13T10:44:22;27.00;80.00
10980;DHT22;5543;51.734;8.744;2023-07-13T10:46:56;26.40;82.00
10980;DHT22;5543;51.734;8.744;2023-07-13T10:49:27;25.70;83.40
10980;DHT22;5543;51.734;8.744;2023-07-13T10:51:56;25.40;87.00
10980;DHT22;5543;51.734;8.744;2023-07-13T10:54:27;24.90;84.40
10980;DHT22;5543;51.734;8.744;2023-07-13T10:57:15;24.50;85.90
10980;DHT22;5543;51.734;8.744;2023-07-13T10:59:47;24.30;86.70
10980;DHT22;5543;51.734;8.744;2023-07-13T11:02:25;24.60;90.70
10980;DHT22;5543;51.734;8.744;2023-07-13T11:04:57;24.70;90.30
10980;DHT22;5543;51.734;8.744;2023-07-13T11:07:27;24.60;86.90
10980;DHT22;5543;51.734;8.744;2023-07-13T11:09:57;24.50;89.50
10980;DHT22;5543;51.734;8.744;2023-07-13T11:12:28;24.20;90.00
10980;DHT22;5543;51.734;8.744;2023-07-13T11:15:28;24.30;90.10
10980;DHT22;5543;51.734;8.744;2023-07-13T11:17:57;24.00;89.60
10980;DHT22;5543;51.734;8.744;2023-07-13T11:20:39;23.70;88.50
10980;DHT22;5543;51.734;8.744;2023-07-13T11:23:20;23.40;90.00
10980;DHT22;5543;51.734;8.744;2023-07-13T11:25:48;23.30;90.70
10980;DHT22;5543;51.734;8.744;2023-07-13T11:28:22;23.40;91.00
10980;DHT22;5543;51.734;8.744;2023-07-13T11:31:10;24.60;91.60
10980;DHT22;5543;51.734;8.744;2023-07-13T11:34:02;25.80;87.40
10980;DHT22;5543;51.734;8.744;2023-07-13T11:36:37;26.30;84.80
10980;DHT22;5543;51.734;8.744;2023-07-13T11:39:18;26.80;87.80
10980;DHT22;5543;51.734;8.744;2023-07-13T11:41:50;27.60;81.40
10980;DHT22;5543;51.734;8.744;2023-07-13T11:44:21;28.40;86.00
10980;DHT22;5543;51.734;8.744;2023-07-13T11:46:51;28.20;82.90
10980;DHT22;5543;51.734;8.744;2023-07-13T11:49:22;27.50;81.90
10980;DHT22;5543;51.734;8.744;2023-07-13T11:51:53;26.90;80.10
10980;DHT22;5543;51.734;8.744;2023-07-13T11:54:27;26.10;79.60
10980;DHT22;5543;51.734;8.744;2023-07-13T11:56:59;25.30;80.50
10980;DHT22;5543;51.734;8.744;2023-07-13T11:59:30;24.70;82.40
10980;DHT22;5543;51.734;8.744;2023-07-13T12:01:59;24.40;86.50
10980;DHT22;5543;51.734;8.744;2023-07-13T12:04:32;24.30;87.20
10980;DHT22;5543;51.734;8.744;2023-07-13T12:07:06;24.30;87.20
10980;DHT22;5543;51.734;8.744;2023-07-13T12:09:35;24.40;85.00
10980;DHT22;5543;51.734;8.744;2023-07-13T12:12:10;24.60;90.20
10980;DHT22;5543;51.734;8.744;2023-07-13T12:14:39;24.50;86.70
10980;DHT22;5543;51.734;8.744;2023-07-13T12:17:18;24.50;85.40
10980;DHT22;5543;51.734;8.744;2023-07-13T12:19:48;24.50;85.60
10980;DHT22;5543;51.734;8.744;2023-07-13T12:22:19;24.40;88.20
10980;DHT22;5543;51.734;8.744;2023-07-13T12:24:51;24.50;87.10
10980;DHT22;5543;51.734;8.744;2023-07-13T12:27:22;24.50;88.50
10980;DHT22;5543;51.734;8.744;2023-07-13T12:29:59;24.50;88.30
10980;DHT22;5543;51.734;8.744;2023-07-13T12:32:28;24.30;91.50
10980;DHT22;5543;51.734;8.744;2023-07-13T12:35:15;24.10;88.70
10980;DHT22;5543;51.734;8.744;2023-07-13T12:37:47;23.70;90.50
10980;DHT22;5543;51.734;8.744;2023-07-13T12:40:16;23.50;85.20
10980;DHT22;5543;51.734;8.744;2023-07-13T12:42:46;23.40;86.00
10980;DHT22;5543;51.734;8.744;2023-07-13T12:45:19;23.30;88.10
10980;DHT22;5543;51.734;8.744;2023-07-13T12:47:49;23.30;86.60
10980;DHT22;5543;51.734;8.744;2023-07-13T12:50:20;23.50;88.40
10980;DHT22;5543;51.734;8.744;2023-07-13T12:52:53;23.70;86.50
10980;DHT22;5543;51.734;8.744;2023-07-13T12:55:22;24.20;86.50
10980;DHT22;5543;51.734;8.744;2023-07-13T12:57:53;24.80;86.80
10980;DHT22;5543;51.734;8.744;2023-07-13T13:00:25;25.10;87.60
10980;DHT22;5543;51.734;8.744;2023-07-13T13:02:56;25.20;89.80
10980;DHT22;5543;51.734;8.744;2023-07-13T13:05:44;25.40;85.20
10980;DHT22;5543;51.734;8.744;2023-07-13T13:08:14;25.40;84.30
10980;DHT22;5543;51.734;8.744;2023-07-13T13:10:42;25.50;87.00
10980;DHT22;5543;51.734;8.744;2023-07-13T13:13:12;25.20;82.00
10980;DHT22;5543;51.734;8.744;2023-07-13T13:15:40;24.90;84.30
10980;DHT22;5543;51.734;8.744;2023-07-13T13:18:15;24.70;87.70
10980;DHT22;5543;51.734;8.744;2023-07-13T13:20:43;24.70;88.40
10980;DHT22;5543;51.734;8.744;2023-07-13T13:23:16;25.00;84.10
10980;DHT22;5543;51.734;8.744;2023-07-13T13:25:45;25.60;83.90
10980;DHT22;5543;51.734;8.744;2023-07-13T13:28:15;26.40;84.00
10980;DHT22;5543;51.734;8.744;2023-07-13T13:30:45;27.10;84.60
10980;DHT22;5543;51.734;8.744;2023-07-13T13:33:15;27.50;79.50
10980;DHT22;5543;51.734;8.744;2023-07-13T13:35:44;28.20;80.10
10980;DHT22;5543;51.734;8.744;2023-07-13T13:38:14;28.40;79.70
10980;DHT22;5543;51.734;8.744;2023-07-13T13:40:44;28.80;79.10
10980;DHT22;5543;51.734;8.744;2023-07-13T13:43:16;28.90;76.80
10980;DHT22;5543;51.734;8.744;2023-07-13T13:45:45;28.80;75.40
10980;DHT22;5543;51.734;8.744;2023-07-13T13:48:15;28.60;75.40
10980;DHT22;5543;51.734;8.744;2023-07-13T13:50:44;28.10;76.00
10980;DHT22;5543;51.734;8.744;2023-07-13T13:53:14;27.60;78.90
10980;DHT22;5543;51.734;8.744;2023-07-13T13:55:42;27.50;79.70
10980;DHT22;5543;51.734;8.744;2023-07-13T13:58:11;27.40;77.10
10980;DHT22;5543;51.734;8.744;2023-07-13T14:00:39;27.20;79.20
10980;DHT22;5543;51.734;8.744;2023-07-13T14:03:14;27.50;81.90
10980;DHT22;5543;51.734;8.744;2023-07-13T14:05:43;27.50;76.80
10980;DHT22;5543;51.734;8.744;2023-07-13T14:08:17;27.70;76.20
10980;DHT22;5543;51.734;8.744;2023-07-13T14:10:47;27.60;78.30
10980;DHT22;5543;51.734;8.744;2023-07-13T14:13:17;27.40;78.20
10980;DHT22;5543;51.734;8.744;2023-07-13T14:15:46;27.50;79.90
10980;DHT22;5543;51.734;8.744;2023-07-13T14:18:14;27.90;76.90
10980;DHT22;5543;51.734;8.744;2023-07-13T14:20:45;27.80;75.80
10980;DHT22;5543;51.734;8.744;2023-07-13T14:23:15;27.30;76.40
10980;DHT22;5543;51.734;8.744;2023-07-13T14:25:46;26.60;79.00
10980;DHT22;5543;51.734;8.744;2023-07-13T14:28:21;26.10;78.70
10980;DHT22;5543;51.734;8.744;2023-07-13T14:30:51;26.10;78.90
10980;DHT22;5543;51.734;8.744;2023-07-13T14:33:19;26.00;80.30
10980;DHT22;5543;51.734;8.744;2023-07-13T14:35:49;25.80;78.20
10980;DHT22;5543;51.734;8.744;2023-07-13T14:38:21;25.80;77.30
10980;DHT22;5543;51.734;8.744;2023-07-13T14:40:49;25.80;77.60
10980;DHT22;5543;51.734;8.744;2023-07-13T14:43:18;25.60;80.20
10980;DHT22;5543;51.734;8.744;2023-07-13T14:45:48;25.70;76.00
10980;DHT22;5543;51.734;8.744;2023-07-13T14:48:20;25.60;79.80
10980;DHT22;5543;51.734;8.744;2023-07-13T14:50:53;25.40;80.20
10980;DHT22;5543;51.734;8.744;2023-07-13T14:53:24;25.50;81.00
10980;DHT22;5543;51.734;8.744;2023-07-13T14:55:54;25.30;74.10
10980;DHT22;5543;51.734;8.744;2023-07-13T14:58:23;25.10;73.70
10980;DHT22;5543;51.734;8.744;2023-07-13T15:00:51;24.90;77.50
10980;DHT22;5543;51.734;8.744;2023-07-13T15:03:24;24.50;80.00
10980;DHT22;5543;51.734;8.744;2023-07-13T15:05:53;24.10;83.40
10980;DHT22;5543;51.734;8.744;2023-07-13T15:08:23;23.70;85.50
10980;DHT22;5543;51.734;8.744;2023-07-13T15:10:52;23.20;85.30
10980;DHT22;5543;51.734;8.744;2023-07-13T15:13:21;22.90;85.30
10980;DHT22;5543;51.734;8.744;2023-07-13T15:15:51;22.50;87.50
10980;DHT22;5543;51.734;8.744;2023-07-13T15:18:22;22.10;89.70
10980;DHT22;5543;51.734;8.744;2023-07-13T15:20:51;21.60;91.90
10980;DHT22;5543;51.734;8.744;2023-07-13T15:23:23;21.00;94.10
10980;DHT22;5543;51.734;8.744;2023-07-13T15:25:52;20.50;96.00
10980;DHT22;5543;51.734;8.744;2023-07-13T15:28:20;20.00;98.30
10980;DHT22;5543;51.734;8.744;2023-07-13T15:30:49;19.60;98.70
10980;DHT22;5543;51.734;8.744;2023-07-13T15:33:23;19.30;99.90
10980;DHT22;5543;51.734;8.744;2023-07-13T15:35:52;19.00;99.90
10980;DHT22;5543;51.734;8.744;2023-07-13T15:38:24;18.70;99.90
10980;DHT22;5543;51.734;8.744;2023-07-13T15:40:52;18.30;99.90
10980;DHT22;5543;51.734;8.744;2023-07-13T15:43:21;18.30;99.90
10980;DHT22;5543;51.734;8.744;2023-07-13T15:45:49;18.20;99.90
10980;DHT22;5543;51.734;8.744;2023-07-13T15:48:19;18.00;99.90
10980;DHT22;5543;51.734;8.744;2023-07-13T15:50:49;17.90;99.90
10980;DHT22;5543;51.734;8.744;2023-07-13T15:53:20;17.70;99.90
10980;DHT22;5543;51.734;8.744;2023-07-13T15:55:51;17.60;99.90
10980;DHT22;5543;51.734;8.744;2023-07-13T15:58:19;17.40;99.90
10980;DHT22;5543;51.734;8.744;2023-07-13T16:00:48;17.40;99.90
10980;DHT22;5543;51.734;8.744;2023-07-13T16:03:19;17.20;99.90
10980;DHT22;5543;51.734;8.744;2023-07-13T16:05:48;17.20;99.90
10980;DHT22;5543;51.734;8.744;2023-07-13T16:08:23;17.30;99.90